createdAt,value
2023-03-12T00:01:48.132Z,1.10
2023-03-12T00:04:18.645Z,1.07
2023-03-12T00:06:49.153Z,1.05
2023-03-12T00:13:11.790Z,1.03
2023-03-12T00:15:42.476Z,1.02
2023-03-12T00:18:13.045Z,1.01
2023-03-12T00:20:43.409Z,1.04
2023-03-12T00:23:13.899Z,1.04
2023-03-12T00:25:46.792Z,1.09
2023-03-12T00:28:20.013Z,1.13
2023-03-12T00:30:52.187Z,1.12
2023-03-12T00:33:22.876Z,1.11
2023-03-12T00:35:53.291Z,1.08
2023-03-12T00:38:24.038Z,1.12
2023-03-12T00:40:54.511Z,1.07
2023-03-12T00:43:27.771Z,0.90
2023-03-12T00:45:58.395Z,1.09
2023-03-12T00:48:28.977Z,1.08
2023-03-12T00:50:59.597Z,1.10
2023-03-12T00:53:30.062Z,1.00
2023-03-12T00:56:00.811Z,1.08
2023-03-12T00:58:34.239Z,1.06
2023-03-12T01:01:04.786Z,1.01
2023-03-12T01:03:35.393Z,0.99
2023-03-12T01:06:06.128Z,0.95
2023-03-12T01:08:36.843Z,0.93
2023-03-12T01:11:07.857Z,0.92
2023-03-12T01:13:41.005Z,0.92
2023-03-12T01:16:11.924Z,0.91
2023-03-12T01:18:42.621Z,0.83
2023-03-12T01:21:13.142Z,0.89
2023-03-12T01:23:43.703Z,0.88
2023-03-12T01:26:14.358Z,0.91
2023-03-12T01:28:47.770Z,0.89
2023-03-12T01:31:21.154Z,0.87
2023-03-12T01:33:53.140Z,0.88
2023-03-12T01:36:25.390Z,0.88
2023-03-12T01:38:58.277Z,0.86
2023-03-12T01:41:32.536Z,0.87
2023-03-12T01:44:06.826Z,0.84
2023-03-12T01:46:38.853Z,0.62
2023-03-12T01:49:19.027Z,0.79
2023-03-12T01:51:55.382Z,0.73
2023-03-12T01:54:33.018Z,0.76
2023-03-12T01:57:04.224Z,0.52
2023-03-12T01:59:42.095Z,0.71
2023-03-12T02:02:12.626Z,0.67
2023-03-12T02:04:46.026Z,0.58
2023-03-12T02:07:18.569Z,0.58
2023-03-12T02:09:51.982Z,0.52
2023-03-12T02:12:22.621Z,0.52
2023-03-12T02:14:56.265Z,0.52
2023-03-12T02:17:27.407Z,0.53
2023-03-12T02:20:08.129Z,0.56
2023-03-12T02:22:40.402Z,0.61
2023-03-12T02:25:33.657Z,0.62
2023-03-12T02:28:07.149Z,0.47
2023-03-12T02:30:38.514Z,0.64
2023-03-12T02:33:11.833Z,0.65
2023-03-12T02:35:42.533Z,0.64
2023-03-12T02:38:36.501Z,0.70
2023-03-12T02:41:15.622Z,0.72
2023-03-12T02:43:48.874Z,0.69
2023-03-12T02:46:20.309Z,0.74
2023-03-12T02:48:51.085Z,0.72
2023-03-12T02:51:22.151Z,0.74
2023-03-12T02:53:55.195Z,0.73
2023-03-12T02:56:31.982Z,0.64
2023-03-12T02:59:04.469Z,0.49
2023-03-12T03:01:38.296Z,0.58
2023-03-12T03:04:10.540Z,0.34
2023-03-12T03:06:44.176Z,0.56
2023-03-12T03:09:15.512Z,0.52
2023-03-12T03:11:48.706Z,0.49
2023-03-12T03:14:19.789Z,0.32
2023-03-12T03:16:53.048Z,0.33
2023-03-12T03:19:26.308Z,0.43
2023-03-12T03:21:57.016Z,0.39
2023-03-12T03:24:27.751Z,0.26
2023-03-12T03:27:00.894Z,0.32
2023-03-12T03:29:31.656Z,0.28
2023-03-12T03:32:03.143Z,0.32
2023-03-12T03:34:33.812Z,0.32
2023-03-12T03:37:04.335Z,0.31
2023-03-12T03:39:36.443Z,0.28
2023-03-12T03:42:09.978Z,0.28
2023-03-12T03:44:40.681Z,0.26
2023-03-12T03:47:11.386Z,0.02
2023-03-12T03:49:42.067Z,0.28
2023-03-12T03:52:12.669Z,0.06
2023-03-12T03:54:43.309Z,0.28
2023-03-12T03:57:16.779Z,0.28
2023-03-12T03:59:47.337Z,0.29
2023-03-12T04:02:18.621Z,0.31
2023-03-12T04:04:49.215Z,0.31
2023-03-12T04:07:21.401Z,0.32
2023-03-12T04:09:52.215Z,0.36
2023-03-12T04:12:26.162Z,0.37
2023-03-12T04:14:56.838Z,0.38
2023-03-12T04:17:27.453Z,0.42
2023-03-12T04:20:00.592Z,0.40
2023-03-12T04:22:31.236Z,0.33
2023-03-12T04:25:01.872Z,0.44
2023-03-12T04:27:35.308Z,0.40
2023-03-12T04:30:06.752Z,0.34
2023-03-12T04:32:39.119Z,0.37
2023-03-12T04:35:10.499Z,0.31
2023-03-12T04:37:40.971Z,0.33
2023-03-12T04:40:14.041Z,0.37
2023-03-12T04:42:48.058Z,0.34
2023-03-12T04:45:19.383Z,0.44
2023-03-12T04:47:51.261Z,0.47
2023-03-12T04:50:22.308Z,0.47
2023-03-12T04:52:52.940Z,0.44
2023-03-12T04:55:23.647Z,0.46
2023-03-12T04:57:57.230Z,0.45
2023-03-12T05:00:28.605Z,0.38
2023-03-12T05:02:59.747Z,0.33
2023-03-12T05:05:30.907Z,0.32
2023-03-12T05:08:02.116Z,0.16
2023-03-12T05:10:33.200Z,0.23
2023-03-12T05:13:06.719Z,0.21
2023-03-12T05:15:40.049Z,0.11
2023-03-12T05:18:10.624Z,0.30
2023-03-12T05:20:41.577Z,0.39
2023-03-12T05:23:12.145Z,0.48
2023-03-12T05:25:43.224Z,0.52
2023-03-12T05:28:16.679Z,0.53
2023-03-12T05:30:47.253Z,0.66
2023-03-12T05:33:18.016Z,0.71
2023-03-12T05:35:48.678Z,0.73
2023-03-12T05:38:19.436Z,0.62
2023-03-12T05:40:55.982Z,0.77
2023-03-12T05:43:30.512Z,0.81
2023-03-12T05:46:02.519Z,0.85
2023-03-12T05:48:33.345Z,0.89
2023-03-12T05:51:04.329Z,0.88
2023-03-12T05:53:36.703Z,0.86
2023-03-12T05:56:08.263Z,0.89
2023-03-12T05:58:41.886Z,0.89
2023-03-12T06:01:18.106Z,0.89
2023-03-12T06:03:49.640Z,0.90
2023-03-12T06:06:20.793Z,0.92
2023-03-12T06:08:51.620Z,0.93
2023-03-12T06:11:22.422Z,0.97
2023-03-12T06:13:55.753Z,1.02
2023-03-12T06:16:28.481Z,1.10
2023-03-12T06:19:00.900Z,1.18
2023-03-12T06:21:33.956Z,1.17
2023-03-12T06:24:05.779Z,1.28
2023-03-12T06:26:47.511Z,1.28
2023-03-12T06:29:20.613Z,1.22
2023-03-12T06:31:52.406Z,1.27
2023-03-12T06:34:22.991Z,1.28
2023-03-12T06:36:53.606Z,1.40
2023-03-12T06:39:24.499Z,1.45
2023-03-12T06:41:55.025Z,1.49
2023-03-12T06:44:28.167Z,1.52
2023-03-12T06:46:58.912Z,1.55
2023-03-12T06:49:32.288Z,1.56
2023-03-12T06:52:02.936Z,1.36
2023-03-12T06:54:33.612Z,1.69
2023-03-12T06:57:04.169Z,1.69
2023-03-12T06:59:37.246Z,1.66
2023-03-12T07:02:08.040Z,1.72
2023-03-12T07:04:38.699Z,1.73
2023-03-12T07:07:09.438Z,1.97
2023-03-12T07:09:40.059Z,2.02
2023-03-12T07:12:11.715Z,2.07
2023-03-12T07:14:44.948Z,1.97
2023-03-12T07:17:15.692Z,2.10
2023-03-12T07:19:48.111Z,2.16
2023-03-12T07:22:19.851Z,2.13
2023-03-12T07:24:51.406Z,2.13
2023-03-12T07:27:22.376Z,2.12
2023-03-12T07:29:55.466Z,2.14
2023-03-12T07:32:26.457Z,2.21
2023-03-12T07:34:57.109Z,2.30
2023-03-12T07:37:27.588Z,2.45
2023-03-12T07:39:58.375Z,2.48
2023-03-12T07:42:29.336Z,2.50
2023-03-12T07:45:04.300Z,2.46
2023-03-12T07:47:34.719Z,2.44
2023-03-12T07:50:05.574Z,2.44
2023-03-12T07:52:36.208Z,2.50
2023-03-12T07:55:07.243Z,2.58
2023-03-12T07:57:38.034Z,2.71
2023-03-12T08:00:13.082Z,2.87
2023-03-12T08:02:44.142Z,2.96
2023-03-12T08:05:14.922Z,2.89
2023-03-12T08:07:45.556Z,2.85
2023-03-12T08:10:16.136Z,2.85
2023-03-12T08:12:47.040Z,2.88
2023-03-12T08:15:20.631Z,2.61
2023-03-12T08:17:51.514Z,3.05
2023-03-12T08:20:22.343Z,2.98
2023-03-12T08:22:52.976Z,2.97
2023-03-12T08:25:24.943Z,2.99
2023-03-12T08:27:55.734Z,3.09
2023-03-12T08:30:30.302Z,3.14
2023-03-12T08:33:01.223Z,3.16
2023-03-12T08:35:32.172Z,3.17
2023-03-12T08:38:02.865Z,3.22
2023-03-12T08:40:33.534Z,3.34
2023-03-12T08:43:04.275Z,3.39
2023-03-12T08:45:38.234Z,3.53
2023-03-12T08:48:10.051Z,3.56
2023-03-12T08:50:40.780Z,3.74
2023-03-12T08:53:12.110Z,3.88
2023-03-12T08:55:42.951Z,3.87
2023-03-12T08:58:13.513Z,4.04
2023-03-12T09:00:47.058Z,4.02
2023-03-12T09:03:18.074Z,4.08
2023-03-12T09:05:49.088Z,4.21
2023-03-12T09:08:20.296Z,4.15
2023-03-12T09:10:51.858Z,4.10
2023-03-12T09:13:22.796Z,4.10
2023-03-12T09:15:56.077Z,4.27
2023-03-12T09:18:27.063Z,4.45
2023-03-12T09:20:58.995Z,4.65
2023-03-12T09:23:30.549Z,4.80
2023-03-12T09:26:01.336Z,4.69
2023-03-12T09:28:31.949Z,4.77
2023-03-12T09:31:08.331Z,4.78
2023-03-12T09:33:39.008Z,4.81
2023-03-12T09:36:10.142Z,4.75
2023-03-12T09:38:40.700Z,4.81
2023-03-12T09:41:21.142Z,4.81
2023-03-12T09:43:57.087Z,4.98
2023-03-12T09:46:37.760Z,5.17
2023-03-12T09:49:19.089Z,5.18
2023-03-12T09:51:54.171Z,5.12
2023-03-12T09:54:31.236Z,5.09
2023-03-12T09:57:05.710Z,5.15
2023-03-12T09:59:37.094Z,5.32
2023-03-12T10:02:27.751Z,5.53
2023-03-12T10:05:02.214Z,5.48
2023-03-12T10:07:37.827Z,5.38
2023-03-12T10:10:33.018Z,5.46
2023-03-12T10:13:21.884Z,5.72
2023-03-12T10:16:04.770Z,5.89
2023-03-12T10:18:56.088Z,5.89
2023-03-12T10:21:37.703Z,5.78
2023-03-12T10:24:25.315Z,5.56
2023-03-12T10:27:01.958Z,5.82
2023-03-12T10:29:35.718Z,5.68
2023-03-12T10:32:11.257Z,5.72
2023-03-12T10:34:48.469Z,5.69
2023-03-12T10:37:24.823Z,5.68
2023-03-12T10:39:56.385Z,5.51
2023-03-12T10:42:28.296Z,5.66
2023-03-12T10:45:02.978Z,5.47
2023-03-12T10:47:38.579Z,5.46
2023-03-12T10:50:23.828Z,5.49
2023-03-12T10:52:57.341Z,5.48
2023-03-12T10:55:30.071Z,5.45
2023-03-12T10:58:01.064Z,5.43
2023-03-12T11:00:33.968Z,5.34
2023-03-12T11:03:07.018Z,5.13
2023-03-12T11:05:51.385Z,5.07
2023-03-12T11:08:24.913Z,4.95
2023-03-12T11:10:56.269Z,4.89
2023-03-12T11:13:31.517Z,5.18
2023-03-12T11:16:03.814Z,5.15
2023-03-12T11:18:37.252Z,5.33
2023-03-12T11:21:22.284Z,5.29
2023-03-12T11:24:10.014Z,4.96
2023-03-12T11:26:49.402Z,4.82
2023-03-12T11:29:28.392Z,4.60
2023-03-12T11:32:08.048Z,4.64
2023-03-12T11:34:41.492Z,4.57
2023-03-12T11:37:24.029Z,4.67
2023-03-12T11:40:12.620Z,4.85
2023-03-12T11:42:56.106Z,4.90
2023-03-12T11:45:32.455Z,5.06
2023-03-12T11:48:15.878Z,4.99
2023-03-12T11:50:56.261Z,4.93
2023-03-12T11:53:43.196Z,4.98
2023-03-12T11:56:27.860Z,5.01
2023-03-12T11:59:28.965Z,4.81
2023-03-12T12:02:14.730Z,4.75
2023-03-12T12:05:21.181Z,4.57
2023-03-12T12:08:03.452Z,4.52
2023-03-12T12:10:45.495Z,4.49
2023-03-12T12:13:27.125Z,4.48
2023-03-12T12:16:10.581Z,4.51
2023-03-12T12:19:03.440Z,4.56
2023-03-12T12:21:55.569Z,4.51
2023-03-12T12:24:40.707Z,4.46
2023-03-12T12:27:22.642Z,4.37
2023-03-12T12:30:09.371Z,4.30
2023-03-12T12:32:55.384Z,4.23
2023-03-12T12:35:33.211Z,4.24
2023-03-12T12:38:09.868Z,4.27
2023-03-12T12:40:43.706Z,4.30
2023-03-12T12:43:28.365Z,4.26
2023-03-12T12:46:03.018Z,4.06
2023-03-12T12:48:39.620Z,3.86
2023-03-12T12:51:12.452Z,3.88
2023-03-12T12:53:50.585Z,4.07
2023-03-12T12:56:32.064Z,4.15
2023-03-12T12:59:25.130Z,4.15
2023-03-12T13:01:57.493Z,4.12
2023-03-12T13:04:31.187Z,4.17
2023-03-12T13:07:07.041Z,4.24
2023-03-12T13:09:43.931Z,4.29
2023-03-12T13:12:23.323Z,4.35
2023-03-12T13:14:57.809Z,4.33
2023-03-12T13:17:31.687Z,4.33
2023-03-12T13:20:20.996Z,4.05
2023-03-12T13:23:03.940Z,4.09
2023-03-12T13:25:50.325Z,4.18
2023-03-12T13:28:35.102Z,4.32
2023-03-12T13:31:39.289Z,4.36
2023-03-12T13:34:54.782Z,4.31
2023-03-12T13:37:50.780Z,4.33
2023-03-12T13:40:37.850Z,4.32
2023-03-12T13:43:15.608Z,4.46
2023-03-12T13:46:03.257Z,4.60
2023-03-12T13:48:38.817Z,4.68
2023-03-12T13:51:19.717Z,4.60
2023-03-12T13:53:53.001Z,4.63
2023-03-12T13:56:29.235Z,4.64
2023-03-12T13:59:04.296Z,4.72
2023-03-12T14:01:39.676Z,4.64
2023-03-12T14:04:20.308Z,4.70
2023-03-12T14:07:01.811Z,4.79
2023-03-12T14:09:43.121Z,4.70
2023-03-12T14:12:21.649Z,4.80
2023-03-12T14:15:10.381Z,4.77
2023-03-12T14:17:42.426Z,4.75
2023-03-12T14:20:21.615Z,4.83
2023-03-12T14:22:57.376Z,4.79
2023-03-12T14:25:38.218Z,4.76
2023-03-12T14:28:16.399Z,4.81
2023-03-12T14:30:53.456Z,4.90
2023-03-12T14:33:29.045Z,4.97
2023-03-12T14:36:10.269Z,5.01
2023-03-12T14:38:44.058Z,5.06
2023-03-12T14:41:19.473Z,4.98
2023-03-12T14:43:54.819Z,5.05
2023-03-12T14:46:27.486Z,4.79
2023-03-12T14:48:58.147Z,5.07
2023-03-12T14:51:33.423Z,5.08
2023-03-12T14:54:05.606Z,5.13
2023-03-12T14:56:37.370Z,5.24
2023-03-12T14:59:25.574Z,5.33
2023-03-12T15:02:02.704Z,5.36
2023-03-12T15:04:36.170Z,5.45
2023-03-12T15:07:14.472Z,5.51
2023-03-12T15:09:49.983Z,5.52
2023-03-12T15:12:23.681Z,5.47
2023-03-12T15:14:58.604Z,5.52
2023-03-12T15:17:32.204Z,5.46
2023-03-12T15:20:09.505Z,5.46
2023-03-12T15:22:44.175Z,5.34
2023-03-12T15:25:28.656Z,4.85
2023-03-12T15:28:09.464Z,5.41
2023-03-12T15:30:42.064Z,5.40
2023-03-12T15:33:14.913Z,5.15
2023-03-12T15:36:02.286Z,5.31
2023-03-12T15:38:38.433Z,4.78
2023-03-12T15:41:12.270Z,5.40
2023-03-12T15:43:47.998Z,5.41
2023-03-12T15:46:21.300Z,5.51
2023-03-12T15:48:54.171Z,5.50
2023-03-12T15:51:37.140Z,5.52
2023-03-12T15:54:28.611Z,5.62
2023-03-12T15:57:14.956Z,5.55
2023-03-12T15:59:46.337Z,5.58
2023-03-12T16:02:16.944Z,5.58
2023-03-12T16:04:50.064Z,5.42
2023-03-12T16:07:20.799Z,5.72
2023-03-12T16:09:54.143Z,5.41
2023-03-12T16:12:25.007Z,5.81
2023-03-12T16:14:56.149Z,5.84
2023-03-12T16:17:26.872Z,5.82
2023-03-12T16:19:57.601Z,5.90
2023-03-12T16:22:29.072Z,5.98
2023-03-12T16:25:02.737Z,6.04
2023-03-12T16:27:39.194Z,5.74
2023-03-12T16:30:17.796Z,6.04
2023-03-12T16:32:48.522Z,6.18
2023-03-12T16:35:21.338Z,6.20
2023-03-12T16:37:52.634Z,6.16
2023-03-12T16:40:33.281Z,6.28
2023-03-12T16:43:06.870Z,6.34
2023-03-12T16:45:39.317Z,5.97
2023-03-12T16:48:10.190Z,6.36
2023-03-12T16:50:40.961Z,6.34
2023-03-12T16:53:14.624Z,6.31
2023-03-12T16:55:52.867Z,5.79
2023-03-12T16:58:25.110Z,6.25
2023-03-12T17:01:00.210Z,5.86
2023-03-12T17:03:36.565Z,6.32
2023-03-12T17:06:09.405Z,6.36
2023-03-12T17:08:40.206Z,6.38
2023-03-12T17:11:19.808Z,6.37
2023-03-12T17:13:53.658Z,6.37
2023-03-12T17:16:24.426Z,6.28
2023-03-12T17:18:55.538Z,6.11
2023-03-12T17:21:26.400Z,6.56
2023-03-12T17:24:11.961Z,6.28
2023-03-12T17:26:46.533Z,6.55
2023-03-12T17:29:16.891Z,6.64
2023-03-12T17:31:47.604Z,6.68
2023-03-12T17:34:18.582Z,6.57
2023-03-12T17:36:49.145Z,6.53
2023-03-12T17:39:20.277Z,6.71
2023-03-12T17:41:53.622Z,6.71
2023-03-12T17:44:24.357Z,6.71
2023-03-12T17:46:59.744Z,6.76
2023-03-12T17:49:30.770Z,6.74
2023-03-12T17:52:02.194Z,6.77
2023-03-12T17:54:33.062Z,6.71
2023-03-12T17:57:06.415Z,6.78
2023-03-12T17:59:36.957Z,6.81
2023-03-12T18:02:07.471Z,6.82
2023-03-12T18:04:38.075Z,6.86
2023-03-12T18:07:08.645Z,6.95
2023-03-12T18:09:39.243Z,7.03
2023-03-12T18:12:13.001Z,7.11
2023-03-12T18:14:43.951Z,7.21
2023-03-12T18:17:14.974Z,7.20
2023-03-12T18:19:46.056Z,7.35
2023-03-12T18:22:24.805Z,7.40
2023-03-12T18:24:59.983Z,7.44
2023-03-12T18:27:34.563Z,7.50
2023-03-12T18:30:06.135Z,7.55
2023-03-12T18:32:39.548Z,7.61
2023-03-12T18:35:13.283Z,7.41
2023-03-12T18:37:46.655Z,7.63
2023-03-12T18:40:17.234Z,7.64
2023-03-12T18:42:53.211Z,7.00
2023-03-12T18:45:26.057Z,7.36
2023-03-12T18:47:59.772Z,7.65
2023-03-12T18:50:32.570Z,7.68
2023-03-12T18:53:19.942Z,7.65
2023-03-12T18:55:55.432Z,7.70
2023-03-12T18:58:40.196Z,7.72
2023-03-12T19:01:19.009Z,7.70
2023-03-12T19:03:51.266Z,7.75
2023-03-12T19:06:29.643Z,7.77
2023-03-12T19:09:07.863Z,7.75
2023-03-12T19:11:44.627Z,7.76
2023-03-12T19:14:21.142Z,7.45
2023-03-12T19:16:51.630Z,7.82
2023-03-12T19:19:22.553Z,7.87
2023-03-12T19:21:53.329Z,7.91
2023-03-12T19:24:24.078Z,7.93
2023-03-12T19:26:54.831Z,7.83
2023-03-12T19:29:28.313Z,8.00
2023-03-12T19:31:59.244Z,7.89
2023-03-12T19:34:30.104Z,8.08
2023-03-12T19:37:00.670Z,8.04
2023-03-12T19:39:31.246Z,8.12
2023-03-12T19:42:01.947Z,8.10
2023-03-12T19:44:38.981Z,7.99
2023-03-12T19:47:09.881Z,8.07
2023-03-12T19:49:40.963Z,8.02
2023-03-12T19:52:14.135Z,7.68
2023-03-12T19:54:51.707Z,8.10
2023-03-12T19:57:26.142Z,8.18
2023-03-12T19:59:59.944Z,8.19
2023-03-12T20:02:30.757Z,7.90
2023-03-12T20:05:03.729Z,7.21
2023-03-12T20:07:34.730Z,8.19
2023-03-12T20:10:05.758Z,8.04
2023-03-12T20:12:36.509Z,8.20
2023-03-12T20:15:11.096Z,8.19
2023-03-12T20:17:42.192Z,7.69
2023-03-12T20:20:14.376Z,8.20
2023-03-12T20:22:44.941Z,8.22
2023-03-12T20:25:15.516Z,8.25
2023-03-12T20:27:46.319Z,8.26
2023-03-12T20:30:19.562Z,8.20
2023-03-12T20:32:50.227Z,8.21
2023-03-12T20:35:21.059Z,8.00
2023-03-12T20:37:52.172Z,8.30
2023-03-12T20:40:22.963Z,7.65
2023-03-12T20:42:53.730Z,8.34
2023-03-12T20:45:27.013Z,8.10
2023-03-12T20:47:58.790Z,8.26
2023-03-12T20:50:29.373Z,8.24
2023-03-12T20:52:59.785Z,8.30
2023-03-12T20:55:30.609Z,8.22
2023-03-12T20:58:01.599Z,8.31
2023-03-12T21:00:34.889Z,8.29
2023-03-12T21:03:05.361Z,7.82
2023-03-12T21:05:35.945Z,8.29
2023-03-12T21:08:06.956Z,8.27
2023-03-12T21:10:39.231Z,7.29
2023-03-12T21:13:09.793Z,8.14
2023-03-12T21:15:43.012Z,7.96
2023-03-12T21:18:13.638Z,8.09
2023-03-12T21:20:45.518Z,8.14
2023-03-12T21:23:16.311Z,8.15
2023-03-12T21:25:46.802Z,8.11
2023-03-12T21:28:18.325Z,8.15
2023-03-12T21:30:51.472Z,7.69
2023-03-12T21:33:22.053Z,8.25
2023-03-12T21:35:52.678Z,8.22
2023-03-12T21:38:23.608Z,7.93
2023-03-12T21:40:57.500Z,8.26
2023-03-12T21:43:28.409Z,8.18
2023-03-12T21:46:06.265Z,8.21
2023-03-12T21:48:37.116Z,8.15
2023-03-12T21:51:10.369Z,7.83
2023-03-12T21:53:41.751Z,8.15
2023-03-12T21:56:12.968Z,8.14
2023-03-12T21:58:44.423Z,8.13
2023-03-12T22:01:19.533Z,8.28
2023-03-12T22:03:50.378Z,8.31
2023-03-12T22:06:20.980Z,8.34
2023-03-12T22:08:52.468Z,8.37
2023-03-12T22:11:23.055Z,8.12
2023-03-12T22:13:53.601Z,8.48
2023-03-12T22:16:26.976Z,8.49
2023-03-12T22:18:57.530Z,8.49
2023-03-12T22:21:28.840Z,8.53
2023-03-12T22:24:00.007Z,8.58
2023-03-12T22:26:31.021Z,8.60
2023-03-12T22:29:02.304Z,8.65
2023-03-12T22:31:35.821Z,8.60
2023-03-12T22:34:06.928Z,8.66
2023-03-12T22:36:37.597Z,8.66
2023-03-12T22:39:08.540Z,8.68
2023-03-12T22:41:39.267Z,8.62
2023-03-12T22:44:10.587Z,8.70
2023-03-12T22:46:43.901Z,8.73
2023-03-12T22:49:14.448Z,8.72
2023-03-12T22:51:45.201Z,8.72
2023-03-12T22:54:15.752Z,8.75
2023-03-12T22:56:46.260Z,8.76
2023-03-12T22:59:16.797Z,8.77
2023-03-12T23:01:49.913Z,8.66
2023-03-12T23:04:20.549Z,8.65
2023-03-12T23:06:51.742Z,8.66
2023-03-12T23:09:24.805Z,8.68
2023-03-12T23:11:55.428Z,8.73
2023-03-12T23:14:26.011Z,8.79
2023-03-12T23:17:00.149Z,8.84
2023-03-12T23:19:35.093Z,8.87
2023-03-12T23:22:05.635Z,8.79
2023-03-12T23:24:36.341Z,8.75
2023-03-12T23:27:07.418Z,8.90
2023-03-12T23:29:38.224Z,8.90
2023-03-12T23:32:11.594Z,8.94
2023-03-12T23:34:42.154Z,8.95
2023-03-12T23:37:12.931Z,8.99
2023-03-12T23:39:54.031Z,9.02
2023-03-12T23:42:25.474Z,8.96
2023-03-12T23:44:55.949Z,8.97
2023-03-12T23:47:29.049Z,9.00
2023-03-12T23:49:59.802Z,8.94
2023-03-12T23:52:30.432Z,8.95
2023-03-12T23:55:01.242Z,8.95
2023-03-12T23:57:32.385Z,8.98
